Phillips, Illinois
Current Conditions -  °F | °C
As of 3:35 AM on Sunday 26 Oct 2014 (Local Time) from KCUL Reporting Station
Clear Clear  
Wind Chill: 50°   Ceiling: Unl
Heat Index: 50°   Visibility: 10mi
Dew Point: 49°   Wind: 0mph
Humidity: 98%   Direction: NA
Pressure: 30.01"   Gusts: NA
Location:  38.1681°N, 88.0517°W
Report Text: KCUL 260835Z AUTO 00000KT 10SM CLR 10/10 A3001 RMK AO2 T00980095
Loading
Personal Weather Stations






























Interactive Weather Map
Tropical Storm Tracking
New forecast layout! Learn more

10-Day Weather Forecast

Advertisements
Track Severe Weather on mobile